aviador You're here:

KRKR Decoded Metar

POTEAU (R KERR) in OK, USA
Report Time2017-11-23 19:55:00
UTC Time2017-11-23 20:14:31
Flight Rules vfr VFR
Wind200° at 07 kt
W.Decomp.*RWY 18: 6.7 kt HW 2.0 kt RCW
W.Rank200° ranks 2
Current wind is below 200° avg. (7.2)
Visibility9999 m
Phenomena:N/A
Clouds:N/A
Expected CloudBase > 8,000 ft AGL from Temp-Dew spread
CeilingNone
Temp17°C (ISA +3)
Dew Point-3°C (25% RH)
AAT12.1°C
QNH1018 hPa
Density Alt699 ft
Elevation453 ft
Report Wrong Elevation
Raw Report
KRKR 231955Z AUTO 20007KT 10SM CLR 17/M03 A3006 RMK AO2=

Extra information for KRKR:More info

Metar Taf Metar & Taf Last 4 Metars F.Rules Stats Wind Profile Meteogram Temp Stats Airport Information Weather charts Add Link Nearby VenuesMetar ALERT Operation Metar Decoded Social comments

AIRNAV info for KRKR